createdAt,value
2023-05-22T00:00:42.063Z,16.89
2023-05-22T00:02:43.434Z,16.79
2023-05-22T00:04:48.295Z,16.74
2023-05-22T00:06:51.319Z,16.64
2023-05-22T00:08:52.326Z,16.56
2023-05-22T00:10:53.087Z,16.53
2023-05-22T00:12:54.007Z,16.47
2023-05-22T00:14:54.953Z,16.33
2023-05-22T00:16:55.697Z,16.28
2023-05-22T00:18:57.367Z,16.20
2023-05-22T00:20:58.107Z,16.15
2023-05-22T00:22:59.179Z,16.17
2023-05-22T00:25:00.746Z,16.15
2023-05-22T00:27:02.274Z,16.12
2023-05-22T00:29:03.325Z,16.08
2023-05-22T00:31:04.241Z,16.08
2023-05-22T00:33:09.586Z,16.09
2023-05-22T00:36:01.860Z,16.01
2023-05-22T00:38:03.060Z,15.92
2023-05-22T00:40:04.423Z,15.80
2023-05-22T00:42:05.489Z,15.67
2023-05-22T00:44:05.993Z,15.67
2023-05-22T00:46:06.631Z,15.59
2023-05-22T00:48:07.167Z,15.52
2023-05-22T00:50:08.819Z,15.49
2023-05-22T00:52:09.583Z,15.36
2023-05-22T00:54:14.682Z,15.31
2023-05-22T00:56:18.249Z,15.24
2023-05-22T00:58:19.470Z,15.24
2023-05-22T01:00:20.444Z,15.25
2023-05-22T01:02:21.128Z,15.28
2023-05-22T01:04:21.386Z,15.27
2023-05-22T01:06:21.731Z,15.24
2023-05-22T01:08:22.146Z,15.24
2023-05-22T01:10:22.462Z,15.21
2023-05-22T01:12:22.907Z,15.19
2023-05-22T01:14:23.205Z,15.14
2023-05-22T01:16:23.700Z,15.09
2023-05-22T01:18:24.014Z,15.07
2023-05-22T01:20:24.409Z,15.02
2023-05-22T01:22:24.775Z,14.99
2023-05-22T01:24:25.073Z,15.00
2023-05-22T01:26:25.469Z,14.97
2023-05-22T01:28:25.778Z,15.02
2023-05-22T01:30:26.117Z,15.00
2023-05-22T01:32:26.518Z,14.97
2023-05-22T01:34:26.905Z,14.97
2023-05-22T01:36:27.269Z,15.02
2023-05-22T01:38:27.585Z,14.97
2023-05-22T01:40:28.004Z,14.94
2023-05-22T01:42:28.306Z,14.88
2023-05-22T01:44:28.625Z,14.88
2023-05-22T01:46:28.987Z,14.81
2023-05-22T01:48:29.415Z,14.78
2023-05-22T01:50:29.806Z,14.78
2023-05-22T01:52:30.404Z,14.73
2023-05-22T01:54:30.890Z,14.77
2023-05-22T01:56:31.255Z,14.78
2023-05-22T01:58:31.977Z,14.77
2023-05-22T02:00:32.523Z,14.73
2023-05-22T02:02:33.166Z,14.62
2023-05-22T02:04:33.779Z,14.60
2023-05-22T02:06:34.250Z,14.60
2023-05-22T02:08:34.845Z,14.54
2023-05-22T02:10:35.209Z,14.47
2023-05-22T02:12:35.581Z,14.47
2023-05-22T02:14:35.970Z,14.40
2023-05-22T02:16:36.377Z,14.35
2023-05-22T02:18:36.782Z,14.30
2023-05-22T02:20:37.313Z,14.30
2023-05-22T02:22:37.665Z,14.30
2023-05-22T02:24:38.092Z,14.30
2023-05-22T02:26:38.379Z,14.32
2023-05-22T02:28:38.786Z,14.33
2023-05-22T02:30:39.320Z,14.35
2023-05-22T02:32:39.980Z,14.41
2023-05-22T02:34:40.713Z,14.37
2023-05-22T02:36:41.339Z,14.33
2023-05-22T02:38:41.964Z,14.30
2023-05-22T02:40:42.525Z,14.28
2023-05-22T02:42:42.965Z,14.23
2023-05-22T02:44:43.685Z,14.18
2023-05-22T02:46:44.534Z,14.11
2023-05-22T02:48:45.669Z,14.05
2023-05-22T02:50:46.502Z,14.12
2023-05-22T02:52:46.860Z,14.10
2023-05-22T02:54:47.190Z,14.07
2023-05-22T02:56:47.580Z,14.04
2023-05-22T02:58:47.987Z,13.99
2023-05-22T03:00:48.421Z,13.92
2023-05-22T03:02:49.114Z,13.89
2023-05-22T03:04:49.575Z,13.87
2023-05-22T03:06:49.974Z,13.83
2023-05-22T03:08:50.321Z,13.81
2023-05-22T03:10:50.680Z,13.75
2023-05-22T03:12:50.992Z,13.72
2023-05-22T03:14:51.296Z,13.72
2023-05-22T03:16:51.725Z,13.71
2023-05-22T03:18:52.134Z,13.68
2023-05-22T03:20:52.443Z,13.65
2023-05-22T03:22:52.789Z,13.67
2023-05-22T03:24:53.095Z,13.68
2023-05-22T03:26:53.417Z,13.62
2023-05-22T03:28:58.747Z,13.65
2023-05-22T03:30:59.073Z,13.63
2023-05-22T03:32:59.685Z,13.62
2023-05-22T03:35:00.146Z,13.70
2023-05-22T03:37:00.534Z,13.74
2023-05-22T03:39:00.891Z,13.78
2023-05-22T03:41:01.277Z,13.75
2023-05-22T03:43:01.586Z,13.77
2023-05-22T03:45:01.996Z,13.85
2023-05-22T03:47:02.376Z,13.87
2023-05-22T03:49:02.782Z,13.92
2023-05-22T03:51:03.099Z,13.96
2023-05-22T03:53:03.434Z,13.99
2023-05-22T03:55:03.840Z,14.03
2023-05-22T03:57:04.222Z,14.03
2023-05-22T03:59:48.424Z,14.11
2023-05-22T04:01:48.906Z,14.18
2023-05-22T04:03:49.412Z,14.18
2023-05-22T04:05:49.879Z,14.22
2023-05-22T04:07:50.340Z,14.18
2023-05-22T04:09:50.714Z,14.26
2023-05-22T04:11:51.205Z,14.28
2023-05-22T04:13:51.581Z,14.33
2023-05-22T04:15:51.905Z,14.37
2023-05-22T04:17:52.372Z,14.41
2023-05-22T04:19:52.722Z,14.47
2023-05-22T04:21:53.027Z,14.51
2023-05-22T04:23:53.295Z,14.58
2023-05-22T04:25:53.655Z,14.60
2023-05-22T04:27:53.906Z,14.63
2023-05-22T04:29:59.093Z,14.69
2023-05-22T04:32:43.249Z,14.72
2023-05-22T04:34:43.607Z,14.73
2023-05-22T04:36:44.171Z,14.73
2023-05-22T04:38:44.662Z,14.81
2023-05-22T04:40:45.391Z,14.82
2023-05-22T04:42:45.707Z,14.86
2023-05-22T04:44:46.097Z,14.92
2023-05-22T04:46:46.540Z,15.02
2023-05-22T04:48:46.808Z,15.03
2023-05-22T04:52:25.816Z,15.15
2023-05-22T04:54:26.185Z,15.19
2023-05-22T04:56:35.522Z,15.22
2023-05-22T04:58:31.822Z,15.28
2023-05-22T05:00:32.334Z,15.40
2023-05-22T05:02:32.970Z,15.44
2023-05-22T05:04:35.972Z,15.52
2023-05-22T05:06:36.313Z,15.57
2023-05-22T05:08:36.934Z,15.64
2023-05-22T05:10:37.617Z,15.73
2023-05-22T05:12:38.125Z,15.82
2023-05-22T05:14:38.518Z,15.90
2023-05-22T05:16:38.913Z,15.98
2023-05-22T05:18:39.174Z,16.09
2023-05-22T05:20:39.818Z,16.13
2023-05-22T05:22:40.330Z,16.24
2023-05-22T05:24:40.632Z,16.31
2023-05-22T05:26:41.280Z,16.42
2023-05-22T05:28:41.690Z,16.57
2023-05-22T05:31:26.234Z,16.72
2023-05-22T05:33:26.485Z,16.83
2023-05-22T05:35:26.754Z,16.93
2023-05-22T05:37:27.228Z,17.04
2023-05-22T05:39:27.932Z,17.14
2023-05-22T05:41:28.729Z,17.20
2023-05-22T05:43:29.127Z,17.29
2023-05-22T05:45:29.446Z,17.38
2023-05-22T05:47:29.882Z,17.46
2023-05-22T05:49:30.377Z,17.52
2023-05-22T05:51:30.860Z,17.60
2023-05-22T05:53:31.367Z,17.68
2023-05-22T05:55:32.716Z,17.74
2023-05-22T05:57:34.652Z,17.86
2023-05-22T05:59:35.087Z,17.87
2023-05-22T06:01:35.546Z,17.97
2023-05-22T06:03:36.091Z,18.03
2023-05-22T06:05:36.552Z,18.13
2023-05-22T06:07:36.944Z,18.20
2023-05-22T06:09:37.397Z,18.28
2023-05-22T06:11:37.745Z,18.33
2023-05-22T06:13:38.128Z,18.38
2023-05-22T06:15:38.433Z,18.49
2023-05-22T06:17:38.837Z,18.56
2023-05-22T06:19:39.162Z,18.60
2023-05-22T06:21:39.480Z,18.74
2023-05-22T06:23:39.762Z,18.81
2023-05-22T06:25:40.114Z,18.90
2023-05-22T06:27:40.397Z,18.93
2023-05-22T06:29:40.794Z,19.00
2023-05-22T06:31:41.313Z,19.12
2023-05-22T06:33:41.696Z,19.15
2023-05-22T06:35:42.047Z,19.22
2023-05-22T06:37:42.418Z,19.29
2023-05-22T06:39:42.843Z,19.33
2023-05-22T06:41:43.228Z,19.31
2023-05-22T06:43:43.495Z,19.33
2023-05-22T06:45:43.887Z,19.45
2023-05-22T06:47:44.250Z,19.52
2023-05-22T06:49:44.614Z,19.56
2023-05-22T06:51:49.729Z,19.62
2023-05-22T06:53:50.136Z,19.71
2023-05-22T06:55:50.385Z,19.84
2023-05-22T06:57:50.816Z,19.85
2023-05-22T06:59:51.118Z,19.94
2023-05-22T07:01:51.448Z,19.99
2023-05-22T07:03:51.701Z,20.07
2023-05-22T07:05:52.088Z,20.19
2023-05-22T07:07:52.376Z,20.32
2023-05-22T07:09:52.674Z,20.41
2023-05-22T07:11:53.258Z,20.50
2023-05-22T07:13:53.565Z,20.59
2023-05-22T07:15:53.842Z,20.72
2023-05-22T07:17:54.215Z,20.78
2023-05-22T07:19:54.503Z,20.85
2023-05-22T07:21:54.811Z,20.92
2023-05-22T07:23:55.470Z,20.96
2023-05-22T07:25:55.706Z,21.02
2023-05-22T07:27:56.024Z,21.07
2023-05-22T07:29:56.338Z,21.11
2023-05-22T07:31:56.730Z,21.12
2023-05-22T07:33:57.040Z,21.11
2023-05-22T07:35:57.362Z,21.07
2023-05-22T07:37:57.722Z,20.99
2023-05-22T07:39:58.005Z,20.99
2023-05-22T07:41:59.447Z,21.05
2023-05-22T07:44:00.498Z,21.18
2023-05-22T07:46:00.843Z,21.24
2023-05-22T07:48:01.321Z,21.32
2023-05-22T07:50:01.634Z,21.37
2023-05-22T07:52:01.912Z,21.51
2023-05-22T07:54:02.252Z,21.64
2023-05-22T07:56:02.544Z,21.70
2023-05-22T07:58:02.829Z,21.80
2023-05-22T08:00:03.132Z,21.89
2023-05-22T08:02:03.465Z,21.89
2023-05-22T08:04:03.888Z,21.99
2023-05-22T08:06:04.513Z,22.06
2023-05-22T08:08:04.867Z,22.14
2023-05-22T08:10:05.131Z,22.17
2023-05-22T08:12:05.438Z,22.28
2023-05-22T08:14:08.004Z,22.38
2023-05-22T08:16:08.259Z,22.41
2023-05-22T08:18:08.679Z,22.45
2023-05-22T08:20:09.713Z,22.39
2023-05-22T08:22:10.070Z,22.43
2023-05-22T08:24:10.415Z,22.39
2023-05-22T08:26:10.782Z,22.44
2023-05-22T08:28:11.147Z,22.51
2023-05-22T08:30:11.402Z,22.60
2023-05-22T08:32:11.852Z,22.62
2023-05-22T08:34:12.102Z,22.73
2023-05-22T08:36:12.397Z,22.88
2023-05-22T08:38:12.740Z,22.90
2023-05-22T08:40:13.186Z,22.99
2023-05-22T08:42:14.171Z,22.99
2023-05-22T08:44:14.483Z,23.03
2023-05-22T08:46:14.837Z,23.10
2023-05-22T08:48:19.945Z,23.24
2023-05-22T08:50:20.229Z,23.37
2023-05-22T08:52:20.578Z,23.56
2023-05-22T08:54:20.900Z,23.77
2023-05-22T08:56:21.327Z,23.93
2023-05-22T08:58:21.585Z,24.10
2023-05-22T09:00:21.892Z,24.16
2023-05-22T09:02:22.257Z,24.30
2023-05-22T09:04:23.312Z,24.32
2023-05-22T09:06:23.808Z,24.47
2023-05-22T09:08:24.286Z,24.58
2023-05-22T09:10:24.584Z,24.76
2023-05-22T09:12:25.307Z,24.84
2023-05-22T09:14:25.609Z,24.98
2023-05-22T09:16:26.165Z,24.86
2023-05-22T09:18:26.478Z,24.92
2023-05-22T09:20:26.827Z,24.98
2023-05-22T09:22:27.163Z,24.96
2023-05-22T09:24:32.331Z,24.93
2023-05-22T09:26:32.936Z,24.96
2023-05-22T09:28:33.282Z,24.91
2023-05-22T09:30:33.544Z,25.06
2023-05-22T09:32:33.935Z,25.36
2023-05-22T09:34:34.344Z,25.54
2023-05-22T09:36:34.633Z,25.80
2023-05-22T09:38:34.927Z,25.91
2023-05-22T09:40:35.373Z,26.15
2023-05-22T09:42:35.668Z,26.22
2023-05-22T09:44:35.939Z,26.21
2023-05-22T09:46:36.252Z,26.36
2023-05-22T09:48:36.811Z,26.23
2023-05-22T09:50:37.209Z,26.40
2023-05-22T09:52:37.514Z,26.58
2023-05-22T09:54:37.860Z,26.73
2023-05-22T09:56:39.874Z,26.83
2023-05-22T09:58:40.585Z,26.97
2023-05-22T10:00:41.117Z,27.00
2023-05-22T10:02:41.574Z,27.11
2023-05-22T10:04:42.032Z,27.07
2023-05-22T10:06:42.363Z,27.25
2023-05-22T10:08:42.702Z,27.39
2023-05-22T10:10:43.181Z,27.48
2023-05-22T10:12:43.609Z,27.45
2023-05-22T10:14:43.881Z,27.48
2023-05-22T10:16:44.198Z,27.55
2023-05-22T10:18:44.610Z,27.58
2023-05-22T10:20:45.021Z,27.02
2023-05-22T10:22:45.412Z,26.47
2023-05-22T10:24:45.713Z,26.59
2023-05-22T10:26:46.236Z,26.81
2023-05-22T10:28:46.524Z,26.73
2023-05-22T10:30:47.176Z,26.78
2023-05-22T10:32:47.660Z,26.77
2023-05-22T10:34:47.995Z,26.93
2023-05-22T10:36:48.429Z,26.70
2023-05-22T10:38:48.661Z,26.56
2023-05-22T10:40:49.226Z,26.44
2023-05-22T10:42:49.554Z,26.16
2023-05-22T10:44:49.872Z,26.22
2023-05-22T10:46:50.193Z,26.47
2023-05-22T10:48:50.460Z,26.73
2023-05-22T10:50:50.759Z,26.97
2023-05-22T10:52:51.190Z,27.26
2023-05-22T10:54:51.615Z,27.45
2023-05-22T10:56:51.892Z,27.49
2023-05-22T10:58:52.225Z,27.54
2023-05-22T11:00:52.578Z,27.65
2023-05-22T11:02:54.067Z,27.85
2023-05-22T11:04:55.472Z,28.05
2023-05-22T11:06:55.743Z,28.38
2023-05-22T11:08:56.215Z,28.38
2023-05-22T11:10:56.471Z,28.01
2023-05-22T11:12:56.898Z,27.77
2023-05-22T11:14:57.154Z,27.39
2023-05-22T11:16:57.577Z,27.67
2023-05-22T11:18:59.004Z,27.71
2023-05-22T11:21:00.907Z,27.73
2023-05-22T11:23:01.201Z,28.12
2023-05-22T11:25:01.652Z,28.54
2023-05-22T11:27:01.928Z,28.63
2023-05-22T11:29:02.268Z,28.37
2023-05-22T11:31:02.567Z,28.25
2023-05-22T11:33:03.090Z,28.19
2023-05-22T11:35:03.462Z,28.51
2023-05-22T11:37:03.792Z,28.79
2023-05-22T11:39:04.108Z,28.89
2023-05-22T11:41:09.413Z,29.14
2023-05-22T11:43:09.773Z,29.12
2023-05-22T11:45:10.399Z,29.24
2023-05-22T11:47:10.776Z,29.39
2023-05-22T11:49:11.062Z,29.42
2023-05-22T11:51:11.465Z,29.51
2023-05-22T11:53:11.759Z,29.54
2023-05-22T11:55:12.096Z,29.65
2023-05-22T11:57:12.522Z,29.87
2023-05-22T11:59:14.315Z,30.02
2023-05-22T12:01:14.699Z,30.13
2023-05-22T12:03:15.087Z,30.08
2023-05-22T12:05:15.407Z,30.19
2023-05-22T12:07:15.681Z,30.30
2023-05-22T12:09:16.134Z,30.39
2023-05-22T12:11:16.498Z,30.43
2023-05-22T12:13:16.917Z,30.51
2023-05-22T12:15:17.264Z,30.61
2023-05-22T12:17:17.517Z,30.68
2023-05-22T12:19:17.989Z,30.75
2023-05-22T12:21:18.756Z,30.75
2023-05-22T12:23:19.059Z,30.61
2023-05-22T12:25:19.351Z,30.50
2023-05-22T12:27:19.713Z,30.37
2023-05-22T12:29:20.134Z,30.46
2023-05-22T12:31:20.750Z,30.55
2023-05-22T12:33:21.022Z,30.63
2023-05-22T12:35:21.725Z,30.68
2023-05-22T12:37:22.074Z,30.15
2023-05-22T12:39:22.329Z,30.28
2023-05-22T12:41:22.667Z,30.51
2023-05-22T12:43:23.106Z,30.73
2023-05-22T12:45:23.599Z,31.00
2023-05-22T12:47:24.157Z,31.22
2023-05-22T12:50:07.879Z,31.46
2023-05-22T12:52:08.254Z,31.40
2023-05-22T12:54:08.694Z,31.09
2023-05-22T12:56:09.134Z,31.09
2023-05-22T12:58:09.523Z,31.15
2023-05-22T13:00:09.785Z,31.21
2023-05-22T13:02:11.795Z,31.28
2023-05-22T13:04:55.455Z,31.06
2023-05-22T13:06:56.228Z,31.09
2023-05-22T13:08:57.038Z,31.34
2023-05-22T13:10:57.737Z,31.65
2023-05-22T13:12:58.110Z,32.00
2023-05-22T13:14:58.354Z,32.29
2023-05-22T13:16:58.741Z,32.55
2023-05-22T13:18:59.150Z,32.67
2023-05-22T13:21:00.193Z,32.59
2023-05-22T13:23:00.618Z,32.74
2023-05-22T13:25:00.911Z,32.92
2023-05-22T13:27:01.207Z,33.15
2023-05-22T13:29:01.532Z,33.28
2023-05-22T13:31:01.842Z,33.09
2023-05-22T13:33:02.286Z,33.08
2023-05-22T13:35:02.710Z,33.22
2023-05-22T13:37:03.146Z,33.27
2023-05-22T13:39:03.454Z,33.28
2023-05-22T13:41:03.726Z,33.15
2023-05-22T13:43:04.402Z,33.19
2023-05-22T13:45:04.681Z,33.37
2023-05-22T13:47:05.168Z,33.67
2023-05-22T13:49:05.466Z,33.89
2023-05-22T13:51:05.932Z,33.83
2023-05-22T13:53:06.162Z,33.58
2023-05-22T13:55:06.555Z,33.59
2023-05-22T13:57:06.913Z,33.69
2023-05-22T13:59:09.327Z,33.92
2023-05-22T14:01:09.997Z,33.98
2023-05-22T14:03:10.397Z,34.16
2023-05-22T14:05:10.810Z,34.10
2023-05-22T14:07:11.219Z,34.30
2023-05-22T14:09:11.459Z,34.32
2023-05-22T14:11:11.863Z,34.39
2023-05-22T14:13:12.130Z,34.39
2023-05-22T14:15:12.407Z,33.90
2023-05-22T14:17:12.806Z,33.83
2023-05-22T14:19:13.115Z,33.65
2023-05-22T14:21:13.432Z,33.81
2023-05-22T14:23:13.897Z,33.80
2023-05-22T14:25:14.199Z,33.22
2023-05-22T14:27:14.674Z,32.67
2023-05-22T14:29:14.913Z,32.53
2023-05-22T14:31:15.283Z,32.04
2023-05-22T14:33:15.666Z,31.90
2023-05-22T14:35:15.941Z,31.65
2023-05-22T14:37:16.408Z,31.27
2023-05-22T14:39:16.777Z,30.92
2023-05-22T14:41:17.151Z,30.63
2023-05-22T14:43:17.473Z,30.28
2023-05-22T14:45:18.591Z,30.13
2023-05-22T14:47:18.933Z,30.12
2023-05-22T14:49:19.264Z,30.09
2023-05-22T14:51:19.765Z,30.09
2023-05-22T14:53:20.073Z,30.10
2023-05-22T14:55:20.502Z,29.93
2023-05-22T14:57:20.821Z,29.63
2023-05-22T14:59:21.155Z,29.56
2023-05-22T15:01:21.536Z,29.29
2023-05-22T15:03:21.856Z,28.48
2023-05-22T15:05:22.326Z,28.25
2023-05-22T15:07:29.261Z,28.11
2023-05-22T15:09:27.905Z,28.11
2023-05-22T15:11:28.410Z,27.93
2023-05-22T15:13:28.690Z,27.65
2023-05-22T15:15:29.097Z,27.52
2023-05-22T15:17:29.541Z,27.39
2023-05-22T15:19:30.131Z,27.42
2023-05-22T15:21:30.487Z,27.37
2023-05-22T15:23:30.814Z,27.29
2023-05-22T15:25:31.123Z,27.20
2023-05-22T15:27:31.547Z,27.08
2023-05-22T15:29:31.807Z,26.95
2023-05-22T15:31:32.224Z,26.88
2023-05-22T15:33:32.476Z,26.83
2023-05-22T15:35:34.476Z,27.02
2023-05-22T15:37:34.796Z,27.10
2023-05-22T15:39:35.109Z,27.08
2023-05-22T15:41:35.494Z,27.10
2023-05-22T15:43:35.986Z,27.07
2023-05-22T15:45:36.329Z,27.00
2023-05-22T15:47:36.731Z,26.96
2023-05-22T15:49:37.057Z,26.96
2023-05-22T15:51:37.348Z,26.95
2023-05-22T15:53:37.628Z,27.02
2023-05-22T15:55:38.297Z,27.05
2023-05-22T15:57:38.893Z,27.02
2023-05-22T15:59:39.273Z,27.03
2023-05-22T16:01:39.679Z,27.03
2023-05-22T16:03:40.098Z,27.08
2023-05-22T16:05:40.665Z,26.90
2023-05-22T16:07:41.154Z,26.77
2023-05-22T16:09:41.443Z,26.58
2023-05-22T16:11:41.793Z,26.48
2023-05-22T16:13:42.181Z,26.16
2023-05-22T16:15:43.094Z,26.02
2023-05-22T16:17:43.755Z,25.88
2023-05-22T16:19:44.081Z,25.68
2023-05-22T16:21:44.424Z,25.47
2023-05-22T16:23:44.728Z,25.21
2023-05-22T16:25:45.130Z,25.13
2023-05-22T16:27:45.451Z,25.18
2023-05-22T16:29:45.765Z,25.17
2023-05-22T16:31:46.470Z,25.18
2023-05-22T16:33:47.040Z,25.17
2023-05-22T16:35:47.356Z,25.10
2023-05-22T16:37:47.757Z,25.01
2023-05-22T16:39:48.225Z,24.98
2023-05-22T16:41:50.109Z,24.86
2023-05-22T16:43:53.597Z,24.78
2023-05-22T16:45:55.895Z,24.77
2023-05-22T16:47:56.367Z,24.68
2023-05-22T16:49:56.590Z,24.57
2023-05-22T16:51:56.934Z,24.47
2023-05-22T16:53:57.244Z,24.36
2023-05-22T16:55:57.565Z,24.26
2023-05-22T16:57:57.875Z,24.16
2023-05-22T16:59:58.512Z,24.08
2023-05-22T17:01:59.095Z,23.98
2023-05-22T17:03:59.606Z,23.73
2023-05-22T17:06:00.016Z,23.55
2023-05-22T17:08:00.265Z,23.41
2023-05-22T17:10:00.723Z,23.34
2023-05-22T17:12:01.014Z,23.15
2023-05-22T17:14:01.409Z,23.02
2023-05-22T17:16:02.510Z,22.88
2023-05-22T17:18:03.179Z,22.81
2023-05-22T17:20:03.672Z,22.76
2023-05-22T17:22:04.173Z,22.75
2023-05-22T17:24:04.480Z,22.75
2023-05-22T17:26:04.844Z,22.73
2023-05-22T17:28:05.171Z,22.76
2023-05-22T17:30:05.941Z,22.78
2023-05-22T17:32:06.309Z,22.78
2023-05-22T17:34:06.652Z,22.70
2023-05-22T17:36:07.155Z,22.68
2023-05-22T17:38:07.411Z,22.63
2023-05-22T17:40:07.722Z,22.59
2023-05-22T17:42:08.084Z,22.55
2023-05-22T17:44:08.642Z,22.48
2023-05-22T17:46:09.003Z,22.44
2023-05-22T17:48:09.326Z,22.39
2023-05-22T17:50:09.597Z,22.28
2023-05-22T17:52:10.061Z,22.13
2023-05-22T17:54:12.188Z,21.95
2023-05-22T17:56:12.422Z,21.79
2023-05-22T17:58:12.802Z,21.66
2023-05-22T18:00:13.079Z,21.60
2023-05-22T18:02:13.504Z,21.51
2023-05-22T18:04:13.802Z,21.45
2023-05-22T18:06:14.202Z,21.37
2023-05-22T18:08:14.568Z,21.33
2023-05-22T18:10:14.926Z,21.29
2023-05-22T18:12:30.224Z,21.14
2023-05-22T18:14:20.378Z,21.11
2023-05-22T18:16:20.758Z,21.03
2023-05-22T18:18:21.022Z,21.00
2023-05-22T18:20:21.338Z,21.03
2023-05-22T18:22:21.650Z,21.02
2023-05-22T18:24:24.366Z,21.00
2023-05-22T18:26:25.325Z,21.05
2023-05-22T18:28:25.636Z,21.05
2023-05-22T18:30:26.004Z,21.02
2023-05-22T18:32:26.292Z,21.03
2023-05-22T18:34:26.615Z,21.07
2023-05-22T18:36:26.933Z,21.06
2023-05-22T18:38:27.234Z,21.12
2023-05-22T18:40:27.649Z,21.12
2023-05-22T18:42:27.958Z,21.11
2023-05-22T18:44:28.268Z,21.09
2023-05-22T18:46:28.612Z,21.06
2023-05-22T18:48:28.885Z,21.05
2023-05-22T18:50:29.488Z,21.00
2023-05-22T18:52:29.748Z,21.00
2023-05-22T18:54:30.098Z,20.97
2023-05-22T18:56:30.471Z,20.95
2023-05-22T18:58:30.732Z,20.92
2023-05-22T19:00:31.017Z,20.90
2023-05-22T19:02:31.315Z,20.90
2023-05-22T19:04:31.670Z,20.85
2023-05-22T19:06:31.980Z,20.82
2023-05-22T19:08:32.630Z,20.80
2023-05-22T19:10:32.872Z,20.75
2023-05-22T19:12:33.306Z,20.77
2023-05-22T19:14:33.588Z,20.75
2023-05-22T19:16:33.949Z,20.77
2023-05-22T19:18:34.228Z,20.77
2023-05-22T19:20:34.578Z,20.75
2023-05-22T19:22:34.892Z,20.72
2023-05-22T19:24:35.160Z,20.69
2023-05-22T19:26:35.470Z,20.67
2023-05-22T19:28:35.886Z,20.63
2023-05-22T19:30:36.243Z,20.60
2023-05-22T19:32:36.640Z,20.59
2023-05-22T19:34:36.941Z,20.58
2023-05-22T19:36:37.356Z,20.58
2023-05-22T19:38:37.658Z,20.56
2023-05-22T19:40:38.123Z,20.51
2023-05-22T19:42:38.563Z,20.50
2023-05-22T19:44:38.995Z,20.50
2023-05-22T19:46:39.329Z,20.41
2023-05-22T19:48:39.731Z,20.32
2023-05-22T19:50:40.254Z,20.31
2023-05-22T19:52:40.756Z,20.36
2023-05-22T19:54:41.004Z,20.34
2023-05-22T19:56:41.548Z,20.34
2023-05-22T19:58:41.882Z,20.31
2023-05-22T20:00:42.671Z,20.24
2023-05-22T20:02:43.431Z,20.26
2023-05-22T20:04:43.890Z,20.24
2023-05-22T20:06:44.193Z,20.24
2023-05-22T20:08:44.780Z,20.25
2023-05-22T20:10:45.040Z,20.24
2023-05-22T20:12:45.377Z,20.24
2023-05-22T20:14:45.639Z,20.16
2023-05-22T20:16:46.337Z,20.09
2023-05-22T20:18:47.182Z,20.07
2023-05-22T20:20:47.723Z,20.06
2023-05-22T20:22:49.002Z,20.04
2023-05-22T20:24:49.345Z,20.09
2023-05-22T20:27:35.109Z,20.07
2023-05-22T20:29:35.536Z,20.10
2023-05-22T20:31:36.015Z,20.04
2023-05-22T20:33:36.591Z,19.99
2023-05-22T20:35:37.170Z,20.02
2023-05-22T20:37:37.616Z,19.99
2023-05-22T20:39:38.094Z,19.99
2023-05-22T20:41:38.506Z,19.99
2023-05-22T20:43:38.878Z,19.92
2023-05-22T20:45:39.366Z,19.86
2023-05-22T20:47:39.828Z,19.82
2023-05-22T20:49:40.256Z,19.76
2023-05-22T20:51:40.616Z,19.71
2023-05-22T20:53:41.032Z,19.71
2023-05-22T20:55:41.626Z,19.66
2023-05-22T20:57:42.102Z,19.66
2023-05-22T20:59:42.466Z,19.63
2023-05-22T21:01:42.777Z,19.62
2023-05-22T21:03:43.215Z,19.58
2023-05-22T21:05:43.620Z,19.58
2023-05-22T21:07:43.890Z,19.58
2023-05-22T21:09:49.054Z,19.64
2023-05-22T21:11:49.433Z,19.64
2023-05-22T21:13:49.698Z,19.63
2023-05-22T21:15:50.022Z,19.67
2023-05-22T21:17:50.521Z,19.62
2023-05-22T21:19:50.856Z,19.56
2023-05-22T21:21:51.236Z,19.54
2023-05-22T21:23:51.600Z,19.55
2023-05-22T21:25:51.895Z,19.58
2023-05-22T21:27:52.199Z,19.59
2023-05-22T21:29:52.496Z,19.62
2023-05-22T21:31:53.064Z,19.59
2023-05-22T21:33:53.462Z,19.59
2023-05-22T21:35:53.746Z,19.66
2023-05-22T21:37:54.169Z,19.66
2023-05-22T21:39:54.686Z,19.67
2023-05-22T21:41:55.383Z,19.70
2023-05-22T21:43:55.736Z,19.67
2023-05-22T21:45:56.022Z,19.67
2023-05-22T21:47:56.445Z,19.71
2023-05-22T21:49:56.710Z,19.71
2023-05-22T21:51:57.030Z,19.74
2023-05-22T21:53:57.466Z,19.71
2023-05-22T21:55:57.742Z,19.67
2023-05-22T21:57:58.088Z,19.64
2023-05-22T21:59:58.391Z,19.63
2023-05-22T22:01:58.859Z,19.59
2023-05-22T22:03:59.173Z,19.54
2023-05-22T22:05:59.471Z,19.49
2023-05-22T22:07:59.749Z,19.47
2023-05-22T22:10:00.251Z,19.41
2023-05-22T22:12:00.543Z,19.34
2023-05-22T22:14:00.796Z,19.37
2023-05-22T22:16:01.238Z,19.31
2023-05-22T22:18:01.605Z,19.31
2023-05-22T22:20:01.910Z,19.27
2023-05-22T22:22:02.195Z,19.26
2023-05-22T22:24:02.500Z,19.26
2023-05-22T22:26:02.914Z,19.24
2023-05-22T22:28:03.168Z,19.22
2023-05-22T22:30:03.724Z,19.19
2023-05-22T22:32:04.058Z,19.21
2023-05-22T22:34:04.310Z,19.16
2023-05-22T22:36:04.570Z,19.11
2023-05-22T22:38:04.905Z,19.08
2023-05-22T22:40:05.202Z,19.08
2023-05-22T22:42:05.587Z,19.07
2023-05-22T22:44:05.881Z,19.04
2023-05-22T22:46:06.176Z,18.98
2023-05-22T22:48:06.488Z,18.92
2023-05-22T22:50:06.783Z,18.86
2023-05-22T22:52:07.079Z,18.84
2023-05-22T22:54:07.456Z,18.81
2023-05-22T22:56:07.897Z,18.78
2023-05-22T22:58:08.289Z,18.78
2023-05-22T23:00:08.568Z,18.80
2023-05-22T23:02:09.132Z,18.71
2023-05-22T23:04:09.492Z,18.71
2023-05-22T23:06:09.824Z,18.66
2023-05-22T23:08:10.110Z,18.65
2023-05-22T23:10:10.553Z,18.63
2023-05-22T23:12:10.844Z,18.62
2023-05-22T23:14:11.254Z,18.59
2023-05-22T23:16:11.664Z,18.55
2023-05-22T23:18:11.929Z,18.52
2023-05-22T23:20:12.337Z,18.45
2023-05-22T23:22:12.644Z,18.45
2023-05-22T23:24:12.940Z,18.45
2023-05-22T23:26:13.252Z,18.44
2023-05-22T23:28:13.665Z,18.38
2023-05-22T23:30:14.068Z,18.40
2023-05-22T23:32:14.948Z,18.40
2023-05-22T23:34:19.495Z,18.35
2023-05-22T23:36:19.796Z,18.35
2023-05-22T23:38:20.088Z,18.35
2023-05-22T23:40:20.361Z,18.34
2023-05-22T23:42:20.646Z,18.33
2023-05-22T23:44:21.130Z,18.34
2023-05-22T23:46:21.550Z,18.29
2023-05-22T23:48:21.927Z,18.31
2023-05-22T23:50:22.227Z,18.26
2023-05-22T23:52:22.660Z,18.25
2023-05-22T23:54:22.943Z,18.25
2023-05-22T23:56:23.246Z,18.28
2023-05-22T23:58:23.554Z,18.26
